Time,TemperatureF,DewpointF,PressureIn,WindDirection,WindDirectionDegrees,WindSpeedMPH,WindSpeedGustMPH,Humidity,HourlyPrecipIn,Conditions,Clouds,dailyrainin,SoftwareType,DateUTC
2013-01-01 00:02:00,58.0,-99.9,30.08,ESE,117,11.0,14.0,-999,-99.99,,,-99.99,,2013-01-01 06:02:00,
2013-01-01 00:12:00,58.0,-99.9,30.08,ESE,114,11.0,14.0,-999,-99.99,,,-99.99,,2013-01-01 06:12:00,
2013-01-01 00:22:00,58.0,-99.9,30.08,ESE,116,11.0,14.0,-999,-99.99,,,-99.99,,2013-01-01 06:22:00,
2013-01-01 00:33:00,59.0,-99.9,30.07,ESE,114,11.0,13.0,-999,-99.99,,,-99.99,,2013-01-01 06:33:00,
2013-01-01 00:43:00,59.0,-99.9,30.07,ESE,116,12.0,15.0,-999,-99.99,,,-99.99,,2013-01-01 06:43:00,
2013-01-01 00:52:00,59.0,-99.9,30.07,North,-999,-999.0,-999.0,-999,-99.99,,,-99.99,,2013-01-01 06:52:00,
2013-01-01 01:02:00,59.0,-99.9,30.07,ESE,115,9.0,11.0,-999,-99.99,,,-99.99,,2013-01-01 07:02:00,
2013-01-01 01:12:00,59.0,-99.9,30.07,ESE,116,10.0,12.0,-999,-99.99,,,-99.99,,2013-01-01 07:12:00,
2013-01-01 01:22:00,60.0,-99.9,30.06,ESE,119,10.0,14.0,-999,-99.99,,,-99.99,,2013-01-01 07:22:00,
2013-01-01 01:32:00,60.0,-99.9,30.06,ESE,119,9.0,11.0,-999,-99.99,,,-99.99,,2013-01-01 07:32:00,
2013-01-01 01:42:00,60.0,-99.9,30.05,SE,125,10.0,13.0,-999,-99.99,,,-99.99,,2013-01-01 07:42:00,
2013-01-01 01:53:00,60.0,-99.9,30.04,North,-999,-999.0,-999.0,-999,-99.99,,,-99.99,,2013-01-01 07:53:00,
2013-01-01 02:02:00,60.0,-99.9,30.04,SE,127,11.0,13.0,-999,-99.99,,,-99.99,,2013-01-01 08:02:00,
2013-01-01 02:12:00,60.0,-99.9,30.03,SE,128,11.0,14.0,-999,-99.99,,,-99.99,,2013-01-01 08:12:00,
2013-01-01 02:22:00,60.0,-99.9,30.03,SE,135,11.0,14.0,-999,-99.99,,,-99.99,,2013-01-01 08:22:00,
2013-01-01 02:32:00,61.0,-99.9,30.03,SSE,151,11.0,14.0,-999,-99.99,,,-99.99,,2013-01-01 08:32:00,
2013-01-01 02:42:00,61.0,-99.9,30.03,SSE,157,11.0,13.0,-999,-99.99,,,-99.99,,2013-01-01 08:42:00,
2013-01-01 02:53:00,61.0,-99.9,30.03,North,-999,-999.0,-999.0,-999,-99.99,,,-99.99,,2013-01-01 08:53:00,
2013-01-01 03:02:00,60.0,-99.9,30.03,SSE,160,9.0,11.0,-999,-99.99,,,-99.99,,2013-01-01 09:02:00,
2013-01-01 03:12:00,59.0,-99.9,30.03,SSE,163,8.0,9.0,-999,-99.99,,,-99.99,,2013-01-01 09:12:00,
2013-01-01 03:22:00,59.0,-99.9,30.03,North,-999,-999.0,-999.0,-999,-99.99,,,-99.99,,2013-01-01 09:22:00,
2013-01-01 03:32:00,59.0,-99.9,30.03,SSE,156,4.0,5.0,-999,-99.99,,,-99.99,,2013-01-01 09:32:00,
2013-01-01 03:42:00,59.0,-99.9,30.03,SSE,149,5.0,6.0,-999,-99.99,,,-99.99,,2013-01-01 09:42:00,
2013-01-01 03:53:00,59.0,-99.9,30.02,SSE,155,4.0,5.0,-999,-99.99,,,-99.99,,2013-01-01 09:53:00,
2013-01-01 04:02:00,59.0,-99.9,30.02,SSE,152,5.0,7.0,-999,-99.99,,,-99.99,,2013-01-01 10:02:00,
2013-01-01 04:12:00,59.0,-99.9,30.02,SSE,168,4.0,5.0,-999,-99.99,,,-99.99,,2013-01-01 10:12:00,
2013-01-01 04:22:00,59.0,-99.9,30.02,North,-999,-999.0,-999.0,-999,-99.99,,,-99.99,,2013-01-01 10:22:00,
2013-01-01 04:33:00,59.0,-99.9,30.01,SSE,165,5.0,6.0,-999,-99.99,,,-99.99,,2013-01-01 10:33:00,
2013-01-01 04:43:00,59.0,-99.9,30.01,South,175,2.0,4.0,-999,-99.99,,,-99.99,,2013-01-01 10:43:00,
2013-01-01 04:53:00,59.0,-99.9,30.01,SSE,157,3.0,5.0,-999,-99.99,,,-99.99,,2013-01-01 10:53:00,
2013-01-01 05:02:00,59.0,-99.9,30.01,SSE,157,4.0,5.0,-999,-99.99,,,-99.99,,2013-01-01 11:02:00,
2013-01-01 05:12:00,59.0,-99.9,30.01,SE,145,5.0,6.0,-999,-99.99,,,-99.99,,2013-01-01 11:12:00,
2013-01-01 05:23:00,60.0,-99.9,30.00,North,-999,-999.0,-999.0,-999,-99.99,,,-99.99,,2013-01-01 11:23:00,
2013-01-01 05:33:00,60.0,-99.9,30.00,SE,143,6.0,8.0,-999,-99.99,,,-99.99,,2013-01-01 11:33:00,
2013-01-01 05:43:00,61.0,-99.9,30.00,SSE,150,7.0,10.0,-999,-99.99,,,-99.99,,2013-01-01 11:43:00,
2013-01-01 05:53:00,61.0,-99.9,30.01,South,177,3.0,4.0,-999,-99.99,,,-99.99,,2013-01-01 11:53:00,
2013-01-01 06:03:00,61.0,-99.9,30.00,SSE,147,1.0,2.0,-999,-99.99,,,-99.99,,2013-01-01 12:03:00,
2013-01-01 06:12:00,61.0,-99.9,30.00,ESE,122,2.0,3.0,-999,-99.99,,,-99.99,,2013-01-01 12:12:00,
2013-01-01 06:22:00,61.0,-99.9,30.00,North,-999,-999.0,-999.0,-999,-99.99,,,-99.99,,2013-01-01 12:22:00,
2013-01-01 06:33:00,62.0,-99.9,30.00,SSE,153,5.0,7.0,-999,-99.99,,,-99.99,,2013-01-01 12:33:00,
2013-01-01 06:43:00,62.0,-99.9,30.00,SSE,151,6.0,8.0,-999,-99.99,,,-99.99,,2013-01-01 12:43:00,
2013-01-01 06:53:00,61.0,-99.9,30.00,SE,141,5.0,7.0,-999,-99.99,,,-99.99,,2013-01-01 12:53:00,
2013-01-01 07:03:00,61.0,-99.9,30.00,SE,144,6.0,8.0,-999,-99.99,,,-99.99,,2013-01-01 13:03:00,
2013-01-01 07:12:00,59.0,-99.9,30.00,South,172,9.0,12.0,-999,-99.99,,,-99.99,,2013-01-01 13:12:00,
2013-01-01 07:22:00,59.0,-99.9,30.00,North,-999,-999.0,-999.0,-999,-99.99,,,-99.99,,2013-01-01 13:22:00,
2013-01-01 07:33:00,59.0,-99.9,30.00,South,175,12.0,14.0,-999,-99.99,,,-99.99,,2013-01-01 13:33:00,
2013-01-01 07:43:00,59.0,-99.9,30.00,South,175,16.0,18.0,-999,-99.99,,,-99.99,,2013-01-01 13:43:00,
2013-01-01 07:53:00,60.0,-99.9,30.00,South,178,16.0,19.0,-999,-99.99,,,-99.99,,2013-01-01 13:53:00,
2013-01-01 08:03:00,60.0,-99.9,30.01,South,178,15.0,18.0,-999,-99.99,,,-99.99,,2013-01-01 14:03:00,
2013-01-01 08:12:00,59.0,-99.9,30.00,South,176,14.0,16.0,-999,-99.99,,,-99.99,,2013-01-01 14:12:00,
2013-01-01 08:22:00,59.0,-99.9,30.01,South,173,11.0,12.0,-999,-99.99,,,-99.99,,2013-01-01 14:22:00,
2013-01-01 08:33:00,59.0,-99.9,30.01,South,172,10.0,11.0,-999,-99.99,,,-99.99,,2013-01-01 14:33:00,
2013-01-01 08:43:00,59.0,-99.9,30.01,South,170,10.0,12.0,-999,-99.99,,,-99.99,,2013-01-01 14:43:00,
2013-01-01 08:53:00,59.0,-99.9,30.01,South,175,7.0,9.0,-999,-99.99,,,-99.99,,2013-01-01 14:53:00,
2013-01-01 09:03:00,59.0,-99.9,30.02,South,173,8.0,10.0,-999,-99.99,,,-99.99,,2013-01-01 15:03:00,
2013-01-01 09:13:00,60.0,-99.9,30.02,South,173,9.0,10.0,-999,-99.99,,,-99.99,,2013-01-01 15:13:00,
2013-01-01 09:22:00,59.0,-99.9,30.03,SSE,166,8.0,9.0,-999,-99.99,,,-99.99,,2013-01-01 15:22:00,
2013-01-01 09:33:00,60.0,-99.9,30.03,South,170,6.0,7.0,-999,-99.99,,,-99.99,,2013-01-01 15:33:00,
2013-01-01 09:43:00,60.0,-99.9,30.03,SSE,167,7.0,8.0,-999,-99.99,,,-99.99,,2013-01-01 15:43:00,
2013-01-01 09:53:00,60.0,-99.9,30.03,North,-999,-999.0,-999.0,-999,-99.99,,,-99.99,,2013-01-01 15:53:00,
2013-01-01 10:02:00,60.0,-99.9,30.03,South,172,6.0,7.0,-999,-99.99,,,-99.99,,2013-01-01 16:02:00,
2013-01-01 10:12:00,60.0,-99.9,30.03,North,-999,-999.0,-999.0,-999,-99.99,,,-99.99,,2013-01-01 16:12:00,
2013-01-01 10:23:00,61.0,-99.9,30.03,North,-999,-999.0,-999.0,-999,-99.99,,,-99.99,,2013-01-01 16:23:00,
2013-01-01 10:33:00,61.0,-99.9,30.02,South,171,7.0,9.0,-999,-99.99,,,-99.99,,2013-01-01 16:33:00,
2013-01-01 10:43:00,60.0,-99.9,30.02,South,173,6.0,10.0,-999,-99.99,,,-99.99,,2013-01-01 16:43:00,
2013-01-01 10:53:00,61.0,-99.9,30.02,North,-999,-999.0,-999.0,-999,-99.99,,,-99.99,,2013-01-01 16:53:00,
2013-01-01 11:03:00,62.0,-99.9,30.02,SSE,168,7.0,8.0,-999,-99.99,,,-99.99,,2013-01-01 17:03:00,
2013-01-01 11:12:00,62.0,-99.9,30.02,South,173,8.0,9.0,-999,-99.99,,,-99.99,,2013-01-01 17:12:00,
2013-01-01 11:23:00,62.0,-99.9,30.02,North,-999,-999.0,-999.0,-999,-99.99,,,-99.99,,2013-01-01 17:23:00,
2013-01-01 11:33:00,62.0,-99.9,30.02,South,173,9.0,11.0,-999,-99.99,,,-99.99,,2013-01-01 17:33:00,
2013-01-01 11:43:00,63.0,-99.9,30.01,SSE,162,8.0,9.0,-999,-99.99,,,-99.99,,2013-01-01 17:43:00,
2013-01-01 11:53:00,63.0,-99.9,30.00,SSE,168,8.0,9.0,-999,-99.99,,,-99.99,,2013-01-01 17:53:00,
2013-01-01 12:03:00,63.0,-99.9,30.00,SSE,162,8.0,10.0,-999,-99.99,,,-99.99,,2013-01-01 18:03:00,
2013-01-01 12:13:00,63.0,-99.9,29.98,North,-999,-999.0,-999.0,-999,-99.99,,,-99.99,,2013-01-01 18:13:00,
2013-01-01 12:23:00,62.0,-99.9,29.98,South,173,7.0,10.0,-999,-99.99,,,-99.99,,2013-01-01 18:23:00,
2013-01-01 12:33:00,62.0,-99.9,29.98,South,169,9.0,11.0,-999,-99.99,,,-99.99,,2013-01-01 18:33:00,
2013-01-01 12:43:00,62.0,-99.9,29.97,South,172,12.0,14.0,-999,-99.99,,,-99.99,,2013-01-01 18:43:00,
2013-01-01 12:53:00,63.0,-99.9,29.96,North,-999,-999.0,-999.0,-999,-99.99,,,-99.99,,2013-01-01 18:53:00,
2013-01-01 13:02:00,63.0,-99.9,29.95,SSE,168,10.0,12.0,-999,-99.99,,,-99.99,,2013-01-01 19:02:00,
2013-01-01 13:12:00,64.0,-99.9,29.95,South,171,10.0,13.0,-999,-99.99,,,-99.99,,2013-01-01 19:12:00,
2013-01-01 13:22:00,63.0,-99.9,29.94,North,-999,-999.0,-999.0,-999,-99.99,,,-99.99,,2013-01-01 19:22:00,
2013-01-01 13:33:00,63.0,-99.9,29.94,South,169,9.0,11.0,-999,-99.99,,,-99.99,,2013-01-01 19:33:00,
2013-01-01 13:43:00,63.0,-99.9,29.94,South,173,9.0,11.0,-999,-99.99,,,-99.99,,2013-01-01 19:43:00,
2013-01-01 13:53:00,63.0,-99.9,29.94,North,-999,-999.0,-999.0,-999,-99.99,,,-99.99,,2013-01-01 19:53:00,
2013-01-01 14:02:00,63.0,-99.9,29.94,SSE,166,8.0,9.0,-999,-99.99,,,-99.99,,2013-01-01 20:02:00,
2013-01-01 14:13:00,63.0,-99.9,29.93,SSE,167,6.0,8.0,-999,-99.99,,,-99.99,,2013-01-01 20:13:00,
2013-01-01 14:23:00,63.0,-99.9,29.93,North,-999,-999.0,-999.0,-999,-99.99,,,-99.99,,2013-01-01 20:23:00,
2013-01-01 14:32:00,64.0,-99.9,29.93,SSE,166,7.0,9.0,-999,-99.99,,,-99.99,,2013-01-01 20:32:00,
2013-01-01 14:43:00,63.0,-99.9,29.93,SSE,165,7.0,8.0,-999,-99.99,,,-99.99,,2013-01-01 20:43:00,
2013-01-01 14:53:00,63.0,-99.9,29.93,North,-999,-999.0,-999.0,-999,-99.99,,,-99.99,,2013-01-01 20:53:00,
2013-01-01 15:03:00,63.0,-99.9,29.93,SSE,166,6.0,8.0,-999,-99.99,,,-99.99,,2013-01-01 21:03:00,
2013-01-01 15:13:00,63.0,-99.9,29.93,SSE,164,6.0,8.0,-999,-99.99,,,-99.99,,2013-01-01 21:13:00,
2013-01-01 15:22:00,63.0,-99.9,29.93,North,-999,-999.0,-999.0,-999,-99.99,,,-99.99,,2013-01-01 21:22:00,
2013-01-01 15:33:00,63.0,-99.9,29.93,South,171,8.0,10.0,-999,-99.99,,,-99.99,,2013-01-01 21:33:00,
2013-01-01 15:43:00,63.0,-99.9,29.93,South,172,6.0,7.0,-999,-99.99,,,-99.99,,2013-01-01 21:43:00,
2013-01-01 15:53:00,63.0,-99.9,29.93,SSE,164,6.0,7.0,-999,-99.99,,,-99.99,,2013-01-01 21:53:00,
2013-01-01 16:03:00,64.0,-99.9,29.93,SSE,163,6.0,7.0,-999,-99.99,,,-99.99,,2013-01-01 22:03:00,
2013-01-01 16:13:00,64.0,-99.9,29.93,SSE,159,4.0,5.0,-999,-99.99,,,-99.99,,2013-01-01 22:13:00,
2013-01-01 16:23:00,63.0,-99.9,29.93,North,-999,-999.0,-999.0,-999,-99.99,,,-99.99,,2013-01-01 22:23:00,
2013-01-01 16:33:00,63.0,-99.9,29.93,SSE,165,4.0,4.0,-999,-99.99,,,-99.99,,2013-01-01 22:33:00,
2013-01-01 16:43:00,63.0,-99.9,29.93,North,-999,-999.0,-999.0,-999,-99.99,,,-99.99,,2013-01-01 22:43:00,
2013-01-01 16:53:00,62.0,-99.9,29.93,North,-999,-999.0,-999.0,-999,-99.99,,,-99.99,,2013-01-01 22:53:00,
2013-01-01 17:03:00,63.0,-99.9,29.93,SSW,193,3.0,5.0,-999,-99.99,,,-99.99,,2013-01-01 23:03:00,
2013-01-01 17:13:00,63.0,-99.9,29.93,SSW,192,5.0,6.0,-999,-99.99,,,-99.99,,2013-01-01 23:13:00,
2013-01-01 17:22:00,63.0,-99.9,29.93,North,-999,-999.0,-999.0,-999,-99.99,,,-99.99,,2013-01-01 23:22:00,
2013-01-01 17:33:00,64.0,-99.9,29.93,South,190,5.0,7.0,-999,-99.99,,,-99.99,,2013-01-01 23:33:00,
2013-01-01 17:42:00,63.0,-99.9,29.93,South,185,5.0,7.0,-999,-99.99,,,-99.99,,2013-01-01 23:42:00,
2013-01-01 17:53:00,62.0,-99.9,29.93,South,170,8.0,8.0,-999,-99.99,,,-99.99,,2013-01-01 23:53:00,
2013-01-01 18:03:00,62.0,-99.9,29.93,South,172,6.0,8.0,-999,-99.99,,,-99.99,,2013-01-02 00:03:00,
2013-01-01 18:12:00,62.0,-99.9,29.94,SSE,168,5.0,5.0,-999,-99.99,,,-99.99,,2013-01-02 00:12:00,
2013-01-01 18:22:00,62.0,-99.9,29.94,North,-999,-999.0,-999.0,-999,-99.99,,,-99.99,,2013-01-02 00:22:00,
2013-01-01 18:33:00,62.0,-99.9,29.94,South,175,5.0,6.0,-999,-99.99,,,-99.99,,2013-01-02 00:33:00,
2013-01-01 18:43:00,62.0,-99.9,29.94,South,172,5.0,6.0,-999,-99.99,,,-99.99,,2013-01-02 00:43:00,
2013-01-01 18:53:00,62.0,-99.9,29.95,North,-999,-999.0,-999.0,-999,-99.99,,,-99.99,,2013-01-02 00:53:00,
2013-01-01 19:02:00,62.0,-99.9,29.95,South,191,4.0,6.0,-999,-99.99,,,-99.99,,2013-01-02 01:02:00,
2013-01-01 19:12:00,63.0,-99.9,29.95,SSW,192,7.0,9.0,-999,-99.99,,,-99.99,,2013-01-02 01:12:00,
2013-01-01 19:22:00,63.0,-99.9,29.95,SSW,202,5.0,8.0,-999,-99.99,,,-99.99,,2013-01-02 01:22:00,
2013-01-01 19:33:00,63.0,-99.9,29.95,SW,220,5.0,8.0,-999,-99.99,,,-99.99,,2013-01-02 01:33:00,
2013-01-01 19:42:00,64.0,-99.9,29.96,WNW,297,10.0,14.0,-999,-99.99,,,-99.99,,2013-01-02 01:42:00,
2013-01-01 19:53:00,63.0,-99.9,29.97,West,274,9.0,13.0,-999,-99.99,,,-99.99,,2013-01-02 01:53:00,
2013-01-01 20:02:00,63.0,-99.9,29.97,West,269,7.0,11.0,-999,-99.99,,,-99.99,,2013-01-02 02:02:00,
2013-01-01 20:12:00,63.0,-99.9,29.97,West,274,8.0,11.0,-999,-99.99,,,-99.99,,2013-01-02 02:12:00,
2013-01-01 20:22:00,63.0,-99.9,29.97,North,-999,-999.0,-999.0,-999,-99.99,,,-99.99,,2013-01-02 02:22:00,
2013-01-01 20:33:00,63.0,-99.9,29.97,WSW,255,6.0,8.0,-999,-99.99,,,-99.99,,2013-01-02 02:33:00,
2013-01-01 20:43:00,62.0,-99.9,29.98,WSW,249,4.0,6.0,-999,-99.99,,,-99.99,,2013-01-02 02:43:00,
2013-01-01 20:53:00,62.0,-99.9,29.98,North,-999,-999.0,-999.0,-999,-99.99,,,-99.99,,2013-01-02 02:53:00,
2013-01-01 21:02:00,61.0,-99.9,29.98,West,266,7.0,9.0,-999,-99.99,,,-99.99,,2013-01-02 03:02:00,
2013-01-01 21:12:00,61.0,-99.9,29.98,WNW,283,6.0,8.0,-999,-99.99,,,-99.99,,2013-01-02 03:12:00,
2013-01-01 21:22:00,61.0,-99.9,29.99,NW,320,13.0,21.0,-999,-99.99,,,-99.99,,2013-01-02 03:22:00,
2013-01-01 21:32:00,60.0,-99.9,29.98,NNW,337,15.0,19.0,-999,-99.99,,,-99.99,,2013-01-02 03:32:00,
2013-01-01 21:42:00,59.0,-99.9,29.99,NNW,346,17.0,22.0,-999,-99.99,,,-99.99,,2013-01-02 03:42:00,
2013-01-01 21:53:00,59.0,-99.9,30.00,NNW,345,15.0,22.0,-999,-99.99,,,-99.99,,2013-01-02 03:53:00,
2013-01-01 22:03:00,58.0,-99.9,30.00,NNW,344,16.0,19.0,-999,-99.99,,,-99.99,,2013-01-02 04:03:00,
2013-01-01 22:12:00,58.0,-99.9,30.00,North,351,14.0,17.0,-999,-99.99,,,-99.99,,2013-01-02 04:12:00,
2013-01-01 22:22:00,58.0,-99.9,30.00,North,-999,-999.0,-999.0,-999,-99.99,,,-99.99,,2013-01-02 04:22:00,
2013-01-01 22:33:00,58.0,-99.9,30.00,North,-999,-999.0,-999.0,-999,-99.99,,,-99.99,,2013-01-02 04:33:00,
2013-01-01 22:42:00,58.0,-99.9,30.01,North,351,17.0,23.0,-999,-99.99,,,-99.99,,2013-01-02 04:42:00,
2013-01-01 22:53:00,58.0,-99.9,30.01,North,351,17.0,20.0,-999,-99.99,,,-99.99,,2013-01-02 04:53:00,
2013-01-01 23:03:00,58.0,-99.9,30.01,North,359,14.0,18.0,-999,-99.99,,,-99.99,,2013-01-02 05:03:00,
2013-01-01 23:12:00,57.0,-99.9,30.01,North,357,13.0,19.0,-999,-99.99,,,-99.99,,2013-01-02 05:12:00,
2013-01-01 23:22:00,57.0,-99.9,30.01,North,357,12.0,16.0,-999,-99.99,,,-99.99,,2013-01-02 05:22:00,
2013-01-01 23:33:00,57.0,-99.9,30.00,North,358,12.0,15.0,-999,-99.99,,,-99.99,,2013-01-02 05:33:00,
2013-01-01 23:43:00,57.0,-99.9,30.01,North,358,13.0,16.0,-999,-99.99,,,-99.99,,2013-01-02 05:43:00,
2013-01-01 23:53:00,56.0,-99.9,30.00,North,-999,-999.0,-999.0,-999,-99.99,,,-99.99,,2013-01-02 05:53:00,